Flight Track Log - Related Links

Times and Time Zones

All times are in EDT time to prevent confusion due to time zone crossing. See the DAL3720 flight status page for this flight to view local times or setup timezone preferences in your user account.

Time Position Orientation Groundspeed Altitude Reporting Facility
EDT Latitude Longitude Course Direction KTS MPH feet Rate Location/Type
Thu 08:08:43 AM 35.2289 -80.9572 52° Northeast 143 165 1,800  Level Atlanta Center
Thu 08:09:02 AM 35.2386 -80.9569 North 146 168 2,500 1,538 Climbing FAA TRACON SMA TRACON (SMA)
Thu 08:09:22 AM 35.2556 -80.9669 334° Northwest 201 231 2,800 1,200 Climbing FAA TRACON SMA TRACON (SMA)
Thu 08:09:42 AM 35.2703 -80.9817 321° Northwest 228 262 3,300 2,100 Climbing FAA TRACON SMA TRACON (SMA)
Thu 08:10:02 AM 35.2914 -81.0011 323° Northwest 250 288 4,200 2,341 Climbing FAA TRACON SMA TRACON (SMA)
Thu 08:10:23 AM 35.3139 -81.0044 353° North 272 313 4,900 2,250 Climbing FAA TRACON SMA TRACON (SMA)
Thu 08:10:42 AM 35.3378 -80.9983 12° North 283 326 5,700 2,684 Climbing FAA TRACON SMA TRACON (SMA)
Thu 08:11:01 AM 35.3622 -80.9928 11° North 290 334 6,600 3,538 Climbing FAA TRACON SMA TRACON (SMA)
Thu 08:11:21 AM 35.3928 -80.9861 10° North 287 330 8,000 3,600 Climbing FAA TRACON SMA TRACON (SMA)
Thu 08:11:41 AM 35.4164 -80.9803 11° North 284 327 9,000 2,400 Climbing FAA TRACON SMA TRACON (SMA)
Thu 08:12:01 AM 35.4397 -80.9733 14° North 284 327 9,600 2,049 Climbing FAA TRACON SMA TRACON (SMA)
Thu 08:12:22 AM 35.4703 -80.9639 14° North 293 337 10,400 1,463 Climbing FAA TRACON SMA TRACON (SMA)
Thu 08:12:42 AM 35.4964 -80.9558 14° North 312 359 10,600 450 Climbing FAA TRACON SMA TRACON (SMA)
Thu 08:13:00 AM 35.3127 -81.1206 52° Northeast  Level FlightAware Approximate
Thu 08:13:02 AM 35.5244 -80.9469 14° North 337 388 10,700  Level FAA TRACON SMA TRACON (SMA)
Thu 08:13:22 AM 35.5611 -80.9353 15° North 351 404 11,300 1,650 Climbing FAA TRACON SMA TRACON (SMA)
Thu 08:13:42 AM 35.5911 -80.9256 15° North 358 412 11,800 1,350 Climbing FAA TRACON SMA TRACON (SMA)
Thu 08:14:02 AM 35.6217 -80.9167 13° North 365 420 12,200 1,650 Climbing FAA TRACON SMA TRACON (SMA)
Thu 08:14:22 AM 35.6603 -80.9039 15° North 375 432 12,900 2,000 Climbing FAA TRACON SMA TRACON (SMA)
Thu 08:14:41 AM 35.6914 -80.8944 14° North 373 429 13,500 1,692 Climbing FAA TRACON SMA TRACON (SMA)
Thu 08:15:01 AM 35.7228 -80.8867 11° North 374 430 14,000 1,350 Climbing FAA TRACON SMA TRACON (SMA)
Thu 08:15:21 AM 35.7547 -80.8825 North 372 428 14,400 1,500 Climbing FAA TRACON SMA TRACON (SMA)
Thu 08:15:41 AM 35.7911 -80.8964 343° North 357 411 15,000 1,500 Climbing FAA TRACON SMA TRACON (SMA)
Thu 08:16:01 AM 35.8181 -80.9119 335° Northwest 354 407 15,400 1,200 Climbing FAA TRACON SMA TRACON (SMA)
Thu 08:16:21 AM 35.8519 -80.9319 334° Northwest 352 405 15,800 1,171 Climbing FAA TRACON SMA TRACON (SMA)
Thu 08:16:42 AM 35.8792 -80.9492 333° Northwest 355 409 16,200 1,463 Climbing FAA TRACON SMA TRACON (SMA)
Thu 08:17:02 AM 35.9069 -80.9647 336° Northwest 355 409 16,800 1,500 Climbing FAA TRACON SMA TRACON (SMA)
Thu 08:17:22 AM 35.9417 -80.9844 335° Northwest 355 409 17,200 900 Climbing FAA TRACON SMA TRACON (SMA)
Thu 08:17:42 AM 35.9697 -81.0003 335° Northwest 358 412 17,400 750 Climbing FAA TRACON SMA TRACON (SMA)
Thu 08:18:02 AM 35.9961 -81.0147 336° Northwest 362 417 17,700 1,200 Climbing FAA TRACON SMA TRACON (SMA)
Thu 08:18:22 AM 36.0339 -81.0369 335° Northwest 364 419 18,200 1,350 Climbing FAA TRACON SMA TRACON (SMA)
Thu 08:18:42 AM 36.0625 -81.0528 336° Northwest 364 419 18,600 750 Climbing FAA TRACON SMA TRACON (SMA)
Thu 08:19:02 AM 36.0697 -81.0564 338° Northwest 364 419 18,700 1,014 Climbing FAA TRACON SMA TRACON (SMA)
Thu 08:19:53 AM 36.1736 -81.1142 336° Northwest 361 415 19,800 1,135 Climbing Atlanta Center
Thu 08:20:53 AM 36.2686 -81.1675 336° Northwest 366 421 20,800 750 Climbing Atlanta Center
Thu 08:21:53 AM 36.3658 -81.2181 337° Northwest 366 421 21,300 750 Climbing Atlanta Center
Thu 08:22:53 AM 36.4608 -81.2742 335° Northwest 379 436 22,300 1,000 Climbing Atlanta Center
Thu 08:23:53 AM 36.4925 -81.3842 290° West 326 375 23,300 850 Climbing Atlanta Center
Thu 08:24:53 AM 36.5158 -81.4944 285° West 331 381 24,000 350 Climbing Atlanta Center
Thu 08:25:53 AM 36.5386 -81.5969 285° West 338 389 24,000  Level Atlanta Center
Thu 08:27:56 AM 36.5939 -81.8414 286° West 339 390 24,000  Level Indianapolis Center
Thu 08:28:58 AM 36.6186 -81.9558 285° West 341 392 24,000  Level Indianapolis Center
Thu 08:30:00 AM 36.6444 -82.0686 286° West 339 390 24,000  Level Indianapolis Center
Thu 08:31:01 AM 36.6683 -82.1814 285° West 338 389 24,000  Level Indianapolis Center
Thu 08:32:03 AM 36.6983 -82.2919 289° West 335 386 24,000  Level Indianapolis Center
Thu 08:33:05 AM 36.7778 -82.3739 320° Northwest 365 420 24,000  Level Indianapolis Center
Thu 08:34:06 AM 36.8592 -82.4561 321° Northwest 374 430 24,000  Level Indianapolis Center
Thu 08:35:08 AM 36.9522 -82.5494 321° Northwest 370 426 24,000  Level Indianapolis Center
Thu 08:36:10 AM 37.0322 -82.6297 321° Northwest 371 427 24,000  Level Indianapolis Center
Thu 08:37:11 AM 37.1114 -82.7106 321° Northwest 370 426 24,000  Level Indianapolis Center
Thu 08:38:13 AM 37.1906 -82.7914 321° Northwest 369 425 24,000  Level Indianapolis Center
Thu 08:39:15 AM 37.2700 -82.8722 321° Northwest 369 425 24,000 -387 Level Indianapolis Center
Thu 08:40:17 AM 37.3631 -82.9672 321° Northwest 369 425 23,200 -1,122 Descending Indianapolis Center
Thu 08:41:18 AM 37.4397 -83.0450 321° Northwest 358 412 21,700 -1,073 Descending Indianapolis Center
Thu 08:42:20 AM 37.5122 -83.1208 320° Northwest 342 394 21,000 -339 Descending Indianapolis Center
Thu 08:43:22 AM 37.5792 -83.2067 315° West 343 395 21,000 -390 Level Indianapolis Center
Thu 08:44:23 AM 37.6353 -83.3036 306° West 342 394 20,200 -829 Descending Indianapolis Center
Thu 08:45:25 AM 37.6908 -83.4003 306° West 340 391 19,300 -1,016 Descending Indianapolis Center
Thu 08:46:27 AM 37.7767 -83.4864 322° Northwest 338 389 18,100 -878 Descending Indianapolis Center
Thu 08:47:28 AM 37.8528 -83.5564 324° Northwest 338 389 17,500 -780 Descending Indianapolis Center
Thu 08:48:30 AM 37.9272 -83.6278 323° Northwest 335 386 16,500 -968 Descending Indianapolis Center
Thu 08:49:32 AM 38.0017 -83.6969 324° Northwest 331 381 15,500 -968 Descending Indianapolis Center
Thu 08:50:34 AM 38.0753 -83.7672 323° Northwest 331 381 14,500 -976 Descending Indianapolis Center
Thu 08:51:35 AM 38.1497 -83.8358 324° Northwest 330 380 13,500 -1,073 Descending Indianapolis Center
Thu 08:52:37 AM 38.2319 -83.9128 324° Northwest 318 366 12,300 -1,065 Descending Indianapolis Center
Thu 08:53:39 AM 38.3017 -83.9797 323° Northwest 315 362 11,300 -581 Descending Indianapolis Center
Thu 08:54:41 AM 38.3739 -84.0469 324° Northwest 318 366 11,100 -98 Descending Indianapolis Center
Thu 08:55:42 AM 38.4467 -84.1139 324° Northwest 321 369 11,100  Level Indianapolis Center
Thu 08:56:44 AM 38.5233 -84.1725 329° Northwest 320 368 11,100  Level Indianapolis Center
Thu 08:57:46 AM 38.5981 -84.2347 327° Northwest 318 366 11,100 -97 Level Indianapolis Center
Thu 08:58:48 AM 38.6792 -84.2972 329° Northwest 320 368 10,900 -97 Descending Indianapolis Center
Thu 08:59:50 AM 38.7553 -84.3581 328° Northwest 320 368 10,900  Level Indianapolis Center
Thu 09:00:52 AM 38.8317 -84.4194 328° Northwest 320 368 10,900  Level Indianapolis Center
Thu 09:01:53 AM 38.9072 -84.4800 328° Northwest 317 365 10,900 -282 Level Indianapolis Center
Thu 09:02:17 AM 38.9500 -84.5000 340° North 272 313 10,500 -1,571 Descending Cincinnati TRACON
Thu 09:03:17 AM 39.0000 -84.5500 322° Northwest 265 305 8,700 -2,015 Descending Cincinnati TRACON
Thu 09:04:28 AM 39.1000 -84.5500 360° North 265 305 6,100 -2,059 Descending Cincinnati TRACON
Thu 09:04:59 AM 39.1303 -84.5636 341° North 268 308 5,200 -1,032 Descending Indianapolis Center
Thu 09:06:01 AM 39.1675 -84.6106 316° Northwest 229 264 4,500 -677 Descending Indianapolis Center

Login

Don't have an account? Register now (free) for customized features, flight alerts, and more!